Meltonville, Iowa
Current Conditions -  °F | °C
As of 11:56 AM on Monday 24 Nov 2014 (Local Time) from KAUM Reporting Station
Overcast Overcast  
Wind Chill: -1°   Ceiling: 1400
Heat Index: 18°   Visibility: 7mi
Dew Point: 14°   Wind: 26mph
Humidity: 86%   Direction: 300°WNW
Pressure: 29.45"   Gusts: 33mph
Location:  43.4276°N, 92.9158°W
Report Text: KAUM 241756Z AUTO 30023G29KT 7SM OVC014 M08/M10 A2945 RMK AO2
Loading
Personal Weather Stations






























Interactive Weather Map New forecast layout! Learn more

10-Day Weather Forecast

Advertisements
Track Severe Weather on mobile